createdAt,value
2022-11-09T00:01:46.735Z,77.96
2022-11-09T00:04:16.485Z,77.70
2022-11-09T00:06:46.293Z,77.81
2022-11-09T00:09:18.817Z,78.02
2022-11-09T00:11:48.640Z,78.71
2022-11-09T00:14:19.327Z,79.20
2022-11-09T00:16:49.163Z,79.78
2022-11-09T00:19:18.944Z,79.73
2022-11-09T00:21:48.752Z,80.23
2022-11-09T00:24:21.273Z,79.68
2022-11-09T00:26:51.114Z,79.76
2022-11-09T00:29:20.950Z,79.55
2022-11-09T00:31:51.825Z,79.74
2022-11-09T00:34:21.672Z,79.87
2022-11-09T00:36:51.513Z,79.80
2022-11-09T00:39:24.188Z,79.77
2022-11-09T00:41:53.967Z,79.62
2022-11-09T00:44:24.466Z,79.44
2022-11-09T00:46:54.408Z,79.04
2022-11-09T00:49:24.261Z,79.32
2022-11-09T00:51:54.659Z,80.00
2022-11-09T00:54:27.037Z,79.71
2022-11-09T00:56:56.878Z,79.33
2022-11-09T00:59:26.750Z,78.76
2022-11-09T01:01:56.546Z,79.38
2022-11-09T01:04:26.379Z,79.91
2022-11-09T01:06:56.235Z,80.21
2022-11-09T01:09:28.708Z,80.35
2022-11-09T01:11:58.777Z,80.22
2022-11-09T01:14:28.592Z,80.34
2022-11-09T01:16:58.450Z,80.06
2022-11-09T01:19:29.567Z,79.62
2022-11-09T01:21:59.385Z,79.75
2022-11-09T01:24:33.835Z,79.32
2022-11-09T01:27:03.665Z,79.35
2022-11-09T01:29:33.463Z,79.31
2022-11-09T01:32:03.223Z,79.47
2022-11-09T01:34:34.995Z,78.74
2022-11-09T01:37:05.455Z,78.28
2022-11-09T01:39:37.827Z,77.89
2022-11-09T01:42:07.711Z,77.85
2022-11-09T01:44:38.184Z,77.86
2022-11-09T01:47:15.380Z,77.51
2022-11-09T01:49:47.880Z,77.44
2022-11-09T01:52:22.938Z,77.15
2022-11-09T01:55:01.970Z,77.10
2022-11-09T01:57:36.001Z,76.85
2022-11-09T02:00:10.124Z,77.12
2022-11-09T02:02:49.896Z,77.28
2022-11-09T02:05:24.487Z,76.83
2022-11-09T02:07:57.191Z,76.94
2022-11-09T02:10:34.387Z,76.47
2022-11-09T02:13:05.499Z,76.38
2022-11-09T02:15:45.387Z,76.05
2022-11-09T02:18:15.993Z,76.17
2022-11-09T02:20:53.149Z,75.86
2022-11-09T02:23:27.239Z,76.25
2022-11-09T02:26:00.586Z,76.26
2022-11-09T02:28:31.335Z,76.25
2022-11-09T02:31:02.208Z,76.40
2022-11-09T02:33:32.063Z,76.35
2022-11-09T02:36:04.495Z,76.10
2022-11-09T02:38:34.308Z,76.40
2022-11-09T02:41:04.547Z,76.56
2022-11-09T02:43:34.598Z,76.22
2022-11-09T02:46:04.451Z,76.15
2022-11-09T02:48:34.262Z,76.50
2022-11-09T02:51:06.786Z,76.14
2022-11-09T02:53:36.562Z,76.59
2022-11-09T02:56:06.695Z,76.31
2022-11-09T02:58:36.542Z,76.43
2022-11-09T03:01:06.592Z,76.80
2022-11-09T03:03:37.762Z,76.79
2022-11-09T03:06:10.318Z,77.06
2022-11-09T03:08:40.577Z,77.46
2022-11-09T03:11:10.482Z,77.98
2022-11-09T03:13:40.355Z,77.89
2022-11-09T03:16:12.235Z,78.55
2022-11-09T03:18:42.960Z,78.55
2022-11-09T03:21:16.095Z,78.52
2022-11-09T03:23:47.754Z,78.57
2022-11-09T03:26:17.619Z,78.09
2022-11-09T03:28:47.473Z,78.65
2022-11-09T03:31:17.928Z,78.41
2022-11-09T03:33:49.772Z,78.94
2022-11-09T03:36:22.153Z,78.68
2022-11-09T03:38:52.950Z,79.11
2022-11-09T03:41:22.777Z,78.89
2022-11-09T03:43:52.638Z,79.22
2022-11-09T03:46:22.443Z,79.26
2022-11-09T03:48:52.210Z,79.07
2022-11-09T03:51:24.685Z,78.48
2022-11-09T03:53:54.555Z,79.28
2022-11-09T03:56:24.369Z,79.14
2022-11-09T03:58:54.191Z,79.34
2022-11-09T04:01:24.019Z,79.45
2022-11-09T04:03:53.871Z,79.65
2022-11-09T04:06:26.308Z,79.42
2022-11-09T04:08:56.098Z,79.22
2022-11-09T04:11:25.883Z,79.38
2022-11-09T04:13:55.629Z,80.10
2022-11-09T04:16:25.453Z,80.38
2022-11-09T04:18:55.274Z,80.13
2022-11-09T04:21:27.719Z,80.29
2022-11-09T04:23:57.554Z,80.50
2022-11-09T04:26:27.416Z,80.98
2022-11-09T04:28:57.269Z,80.98
2022-11-09T04:31:28.311Z,81.33
2022-11-09T04:33:58.339Z,81.75
2022-11-09T04:36:30.755Z,81.41
2022-11-09T04:39:00.557Z,81.49
2022-11-09T04:41:30.666Z,81.60
2022-11-09T04:44:00.488Z,81.80
2022-11-09T04:46:30.537Z,81.85
2022-11-09T04:49:00.307Z,81.66
2022-11-09T04:51:32.722Z,81.28
2022-11-09T04:54:02.486Z,81.49
2022-11-09T04:56:32.267Z,81.56
2022-11-09T04:59:02.080Z,81.40
2022-11-09T05:01:31.865Z,81.70
2022-11-09T05:04:01.707Z,81.76
2022-11-09T05:06:36.737Z,81.31
2022-11-09T05:09:08.459Z,81.41
2022-11-09T05:11:39.062Z,81.42
2022-11-09T05:14:08.870Z,81.62
2022-11-09T05:16:38.662Z,81.55
2022-11-09T05:19:08.470Z,81.51
2022-11-09T05:21:40.870Z,81.46
2022-11-09T05:24:08.753Z,81.78
2022-11-09T05:26:40.508Z,81.95
2022-11-09T05:29:11.707Z,81.78
2022-11-09T05:31:44.522Z,81.68
2022-11-09T05:34:17.618Z,81.88
2022-11-09T05:36:50.003Z,81.90
2022-11-09T05:39:19.765Z,82.11
2022-11-09T05:41:49.562Z,82.07
2022-11-09T05:44:19.326Z,81.95
2022-11-09T05:46:49.088Z,82.44
2022-11-09T05:49:18.867Z,82.33
2022-11-09T05:51:51.339Z,82.48
2022-11-09T05:54:21.149Z,82.22
2022-11-09T05:56:50.924Z,82.04
2022-11-09T05:59:20.810Z,82.13
2022-11-09T06:01:50.695Z,81.70
2022-11-09T06:04:20.516Z,81.76
2022-11-09T06:06:53.189Z,81.27
2022-11-09T06:09:24.131Z,81.29
2022-11-09T06:11:55.995Z,81.11
2022-11-09T06:14:26.843Z,81.53
2022-11-09T06:16:57.731Z,81.42
2022-11-09T06:19:28.680Z,81.61
2022-11-09T06:22:02.173Z,81.28
2022-11-09T06:24:33.508Z,81.47
2022-11-09T06:27:04.393Z,81.38
2022-11-09T06:29:35.244Z,81.13
2022-11-09T06:32:06.207Z,81.13
2022-11-09T06:34:37.035Z,81.29
2022-11-09T06:37:10.427Z,81.01
2022-11-09T06:39:41.265Z,80.93
2022-11-09T06:42:12.101Z,81.63
2022-11-09T06:44:42.893Z,81.39
2022-11-09T06:47:13.719Z,81.19
2022-11-09T06:49:44.630Z,81.49
2022-11-09T06:52:18.160Z,81.61
2022-11-09T06:54:47.923Z,81.76
2022-11-09T06:57:18.795Z,82.29
2022-11-09T06:59:49.690Z,82.48
2022-11-09T07:02:22.424Z,82.52
2022-11-09T07:04:55.276Z,82.65
2022-11-09T07:07:29.947Z,82.31
2022-11-09T07:10:00.799Z,82.44
2022-11-09T07:12:32.722Z,82.21
2022-11-09T07:15:02.654Z,81.97
2022-11-09T07:17:37.132Z,82.39
2022-11-09T07:20:08.021Z,82.27
2022-11-09T07:22:41.879Z,82.33
2022-11-09T07:25:13.686Z,81.93
2022-11-09T07:27:50.365Z,82.10
2022-11-09T07:30:21.870Z,81.68
2022-11-09T07:33:10.063Z,81.77
2022-11-09T07:35:40.430Z,81.08
2022-11-09T07:38:13.267Z,81.47
2022-11-09T07:40:44.035Z,81.52
2022-11-09T07:43:15.973Z,81.28
2022-11-09T07:45:49.947Z,81.58
2022-11-09T07:48:20.945Z,81.63
2022-11-09T07:50:52.075Z,81.07
2022-11-09T07:53:25.725Z,81.50
2022-11-09T07:56:00.720Z,81.89
2022-11-09T07:58:32.234Z,81.78
2022-11-09T08:01:03.153Z,81.79
2022-11-09T08:03:34.027Z,81.77
2022-11-09T08:06:03.933Z,81.61
2022-11-09T08:08:37.446Z,80.83
2022-11-09T08:11:09.389Z,81.34
2022-11-09T08:13:41.314Z,80.84
2022-11-09T08:16:11.459Z,80.77
2022-11-09T08:18:46.901Z,79.94
2022-11-09T08:21:18.299Z,79.82
2022-11-09T08:23:51.734Z,80.11
2022-11-09T08:26:22.629Z,79.82
2022-11-09T08:28:55.893Z,79.51
2022-11-09T08:31:26.777Z,79.72
2022-11-09T08:33:57.674Z,79.83
2022-11-09T08:36:29.922Z,80.09
2022-11-09T08:39:03.676Z,79.60
2022-11-09T08:41:34.592Z,79.38
2022-11-09T08:44:05.658Z,80.24
2022-11-09T08:46:41.044Z,79.53
2022-11-09T08:49:13.254Z,79.98
2022-11-09T08:51:44.111Z,80.16
2022-11-09T08:54:18.186Z,79.61
2022-11-09T08:56:48.025Z,80.69
2022-11-09T08:59:18.925Z,80.13
2022-11-09T09:01:49.990Z,79.93
2022-11-09T09:04:20.952Z,80.05
2022-11-09T09:06:52.901Z,80.95
2022-11-09T09:09:26.828Z,81.12
2022-11-09T09:11:57.731Z,81.41
2022-11-09T09:14:29.074Z,82.04
2022-11-09T09:17:00.017Z,81.85
2022-11-09T09:19:30.902Z,81.65
2022-11-09T09:22:02.013Z,81.16
2022-11-09T09:24:35.630Z,80.73
2022-11-09T09:27:06.744Z,81.33
2022-11-09T09:29:37.655Z,81.57
2022-11-09T09:32:08.632Z,81.60
2022-11-09T09:34:39.522Z,81.80
2022-11-09T09:37:15.427Z,81.06
2022-11-09T09:39:53.669Z,81.24
2022-11-09T09:42:32.831Z,81.46
2022-11-09T09:45:07.114Z,81.09
2022-11-09T09:47:49.486Z,81.70
2022-11-09T09:50:24.263Z,80.21
2022-11-09T09:53:23.303Z,79.51
2022-11-09T09:55:59.318Z,79.09
2022-11-09T09:58:33.026Z,79.29
2022-11-09T10:01:10.009Z,78.97
2022-11-09T10:03:41.867Z,79.40
2022-11-09T10:06:29.477Z,79.41
2022-11-09T10:09:15.973Z,79.82
2022-11-09T10:12:01.342Z,80.71
2022-11-09T10:14:48.292Z,80.89
2022-11-09T10:17:28.544Z,80.74
2022-11-09T10:20:13.239Z,80.80
2022-11-09T10:22:55.132Z,80.62
2022-11-09T10:25:50.324Z,79.83
2022-11-09T10:28:21.031Z,80.14
2022-11-09T10:30:53.376Z,78.57
2022-11-09T10:33:25.424Z,78.45
2022-11-09T10:36:08.176Z,78.87
2022-11-09T10:38:46.425Z,77.74
2022-11-09T10:41:42.220Z,77.25
2022-11-09T10:44:34.492Z,77.00
2022-11-09T10:47:26.364Z,75.27
2022-11-09T10:50:27.150Z,72.05
2022-11-09T10:53:19.289Z,73.04
2022-11-09T10:56:20.831Z,73.06
2022-11-09T10:59:46.623Z,73.00
2022-11-09T11:02:50.180Z,72.64
2022-11-09T11:05:39.878Z,72.61
2022-11-09T11:08:40.991Z,72.95
2022-11-09T11:11:34.254Z,73.19
2022-11-09T11:14:32.355Z,74.48
2022-11-09T11:17:26.176Z,73.70
2022-11-09T11:20:33.192Z,72.54
2022-11-09T11:23:25.329Z,73.44
2022-11-09T11:26:40.677Z,72.21
2022-11-09T11:29:40.220Z,73.33
2022-11-09T11:32:29.996Z,73.04
2022-11-09T11:35:21.442Z,73.40
2022-11-09T11:38:29.272Z,72.88
2022-11-09T11:41:42.671Z,73.45
2022-11-09T11:44:59.410Z,72.94
2022-11-09T11:48:14.315Z,72.10
2022-11-09T11:51:09.440Z,72.79
2022-11-09T11:54:14.087Z,72.30
2022-11-09T11:57:11.688Z,72.85
2022-11-09T12:00:14.064Z,72.18
2022-11-09T12:03:36.850Z,71.81
2022-11-09T12:06:37.162Z,71.98
2022-11-09T12:09:57.118Z,70.17
2022-11-09T12:12:56.758Z,70.73
2022-11-09T12:15:58.397Z,70.63
2022-11-09T12:19:00.438Z,69.73
2022-11-09T12:21:56.983Z,66.83
2022-11-09T12:24:57.930Z,67.30
2022-11-09T12:28:03.622Z,67.37
2022-11-09T12:31:06.877Z,67.06
2022-11-09T12:34:00.522Z,67.82
2022-11-09T12:36:54.724Z,67.24
2022-11-09T12:39:50.220Z,66.41
2022-11-09T12:42:46.261Z,67.42
2022-11-09T12:45:36.876Z,66.99
2022-11-09T12:48:29.320Z,67.87
2022-11-09T12:51:18.478Z,66.80
2022-11-09T12:54:12.675Z,67.05
2022-11-09T12:57:07.738Z,67.29
2022-11-09T12:59:57.533Z,66.95
2022-11-09T13:02:56.377Z,66.57
2022-11-09T13:05:45.861Z,66.13
2022-11-09T13:08:34.931Z,65.49
2022-11-09T13:11:28.298Z,65.72
2022-11-09T13:14:41.209Z,65.22
2022-11-09T13:18:05.247Z,65.93
2022-11-09T13:20:57.101Z,65.68
2022-11-09T13:24:00.957Z,66.34
2022-11-09T13:27:01.901Z,66.07
2022-11-09T13:29:56.927Z,67.00
2022-11-09T13:33:20.452Z,65.17
2022-11-09T13:36:24.202Z,65.87
2022-11-09T13:39:34.420Z,65.95
2022-11-09T13:42:33.838Z,65.88
2022-11-09T13:45:37.900Z,66.57
2022-11-09T13:48:37.427Z,65.44
2022-11-09T13:51:27.965Z,66.27
2022-11-09T13:54:31.901Z,65.34
2022-11-09T13:57:20.194Z,65.57
2022-11-09T14:00:18.998Z,65.50
2022-11-09T14:03:25.327Z,65.50
2022-11-09T14:06:15.410Z,65.51
2022-11-09T14:09:04.406Z,66.16
2022-11-09T14:12:13.590Z,66.41
2022-11-09T14:15:19.889Z,65.78
2022-11-09T14:18:21.155Z,65.23
2022-11-09T14:21:28.059Z,65.24
2022-11-09T14:24:22.193Z,64.72
2022-11-09T14:27:19.667Z,65.23
2022-11-09T14:30:20.478Z,65.29
2022-11-09T14:33:25.791Z,65.45
2022-11-09T14:36:15.954Z,65.07
2022-11-09T14:39:07.070Z,64.72
2022-11-09T14:41:56.134Z,64.94
2022-11-09T14:44:46.966Z,65.11
2022-11-09T14:47:39.601Z,65.26
2022-11-09T14:50:33.730Z,64.72
2022-11-09T14:53:25.735Z,64.92
2022-11-09T14:56:18.069Z,64.06
2022-11-09T14:59:09.530Z,64.70
2022-11-09T15:02:07.340Z,65.08
2022-11-09T15:04:57.717Z,65.44
2022-11-09T15:07:50.812Z,65.82
2022-11-09T15:10:40.575Z,66.88
2022-11-09T15:13:36.954Z,66.52
2022-11-09T15:16:27.260Z,66.80
2022-11-09T15:19:26.496Z,66.90
2022-11-09T15:22:47.278Z,65.63
2022-11-09T15:25:54.877Z,66.02
2022-11-09T15:28:50.214Z,66.31
2022-11-09T15:31:39.973Z,66.77
2022-11-09T15:34:30.638Z,66.30
2022-11-09T15:37:24.783Z,65.90
2022-11-09T15:40:15.964Z,66.05
2022-11-09T15:43:07.857Z,65.99
2022-11-09T15:45:57.746Z,66.17
2022-11-09T15:48:47.559Z,67.03
2022-11-09T15:51:36.255Z,67.03
2022-11-09T15:54:25.968Z,66.73
2022-11-09T15:57:19.556Z,66.40
2022-11-09T16:00:19.541Z,66.43
2022-11-09T16:03:11.333Z,67.11
2022-11-09T16:05:59.583Z,66.83
2022-11-09T16:08:50.478Z,66.18
2022-11-09T16:11:38.985Z,66.26
2022-11-09T16:14:27.819Z,65.66
2022-11-09T16:17:19.199Z,65.93
2022-11-09T16:20:09.660Z,64.54
2022-11-09T16:22:58.418Z,65.63
2022-11-09T16:25:46.747Z,65.01
2022-11-09T16:28:36.359Z,65.48
2022-11-09T16:31:48.073Z,66.24
2022-11-09T16:34:36.388Z,66.18
2022-11-09T16:37:27.135Z,66.76
2022-11-09T16:40:19.319Z,66.49
2022-11-09T16:43:07.978Z,66.63
2022-11-09T16:45:56.874Z,67.26
2022-11-09T16:48:45.682Z,67.45
2022-11-09T16:51:38.080Z,67.10
2022-11-09T16:54:28.261Z,66.67
2022-11-09T16:57:16.984Z,66.89
2022-11-09T17:00:06.592Z,66.00
2022-11-09T17:02:57.224Z,66.48
2022-11-09T17:05:46.825Z,66.76
2022-11-09T17:08:39.385Z,66.91
2022-11-09T17:11:28.388Z,67.47
2022-11-09T17:14:17.240Z,67.66
2022-11-09T17:17:06.782Z,67.58
2022-11-09T17:19:55.452Z,67.93
2022-11-09T17:22:46.238Z,67.80
2022-11-09T17:25:38.933Z,67.10
2022-11-09T17:28:29.643Z,68.14
2022-11-09T17:31:21.752Z,67.35
2022-11-09T17:34:12.307Z,67.65
2022-11-09T17:37:04.656Z,67.42
2022-11-09T17:39:55.447Z,67.57
2022-11-09T17:42:47.790Z,67.90
2022-11-09T17:45:38.160Z,68.12
2022-11-09T17:48:26.930Z,67.76
2022-11-09T17:51:16.750Z,68.08
2022-11-09T17:54:06.635Z,68.03
2022-11-09T17:56:55.047Z,68.54
2022-11-09T17:59:47.237Z,68.68
2022-11-09T18:02:37.296Z,69.09
2022-11-09T18:05:25.699Z,69.25
2022-11-09T18:08:16.456Z,69.56
2022-11-09T18:11:05.924Z,69.42
2022-11-09T18:13:55.693Z,69.85
2022-11-09T18:16:47.336Z,70.32
2022-11-09T18:19:35.880Z,70.38
2022-11-09T18:22:24.338Z,71.02
2022-11-09T18:25:13.487Z,71.09
2022-11-09T18:28:03.713Z,71.66
2022-11-09T18:30:52.330Z,72.17
2022-11-09T18:33:45.517Z,72.46
2022-11-09T18:36:33.921Z,72.79
2022-11-09T18:39:22.454Z,73.36
2022-11-09T18:42:10.779Z,73.59
2022-11-09T18:44:59.389Z,73.74
2022-11-09T18:47:51.293Z,73.74
2022-11-09T18:50:43.310Z,73.76
2022-11-09T18:53:36.269Z,74.53
2022-11-09T18:56:27.554Z,74.91
2022-11-09T18:59:17.547Z,74.84
2022-11-09T19:02:07.426Z,75.49
2022-11-09T19:04:57.075Z,75.39
2022-11-09T19:07:48.050Z,75.17
2022-11-09T19:10:38.796Z,75.35
2022-11-09T19:13:28.382Z,75.43
2022-11-09T19:16:18.735Z,75.13
2022-11-09T19:19:08.319Z,75.05
2022-11-09T19:21:58.652Z,74.58
2022-11-09T19:24:52.166Z,75.24
2022-11-09T19:27:41.493Z,75.37
2022-11-09T19:30:30.870Z,75.39
2022-11-09T19:33:19.706Z,75.90
2022-11-09T19:36:29.228Z,75.94
2022-11-09T19:39:18.956Z,75.47
2022-11-09T19:42:11.031Z,75.75
2022-11-09T19:44:59.667Z,75.44
2022-11-09T19:47:51.613Z,75.11
2022-11-09T19:50:41.181Z,75.38
2022-11-09T19:53:32.301Z,75.16
2022-11-09T19:56:22.312Z,76.64
2022-11-09T19:59:18.216Z,75.02
2022-11-09T20:02:07.223Z,75.31
2022-11-09T20:04:55.879Z,75.51
2022-11-09T20:07:45.643Z,75.95
2022-11-09T20:10:39.199Z,75.88
2022-11-09T20:13:31.221Z,75.97
2022-11-09T20:16:23.304Z,75.20
2022-11-09T20:19:14.845Z,75.60
2022-11-09T20:22:08.495Z,75.33
2022-11-09T20:24:57.542Z,75.82
2022-11-09T20:27:47.204Z,75.57
2022-11-09T20:30:42.154Z,75.62
2022-11-09T20:33:35.553Z,76.06
2022-11-09T20:36:25.687Z,76.14
2022-11-09T20:39:14.717Z,76.56
2022-11-09T20:42:04.705Z,76.95
2022-11-09T20:44:54.750Z,76.53
2022-11-09T20:48:05.065Z,76.49
2022-11-09T20:50:57.163Z,76.11
2022-11-09T20:53:47.416Z,76.43
2022-11-09T20:56:40.499Z,76.44
2022-11-09T20:59:30.125Z,76.94
2022-11-09T21:02:20.176Z,76.80
2022-11-09T21:05:10.663Z,77.18
2022-11-09T21:08:02.036Z,77.78
2022-11-09T21:10:51.611Z,77.52
2022-11-09T21:13:44.168Z,77.69
2022-11-09T21:16:33.797Z,78.26
2022-11-09T21:19:24.634Z,78.20
2022-11-09T21:22:14.998Z,78.86
2022-11-09T21:25:18.608Z,78.95
2022-11-09T21:28:35.271Z,79.04
2022-11-09T21:31:24.719Z,79.22
2022-11-09T21:34:13.371Z,79.26
2022-11-09T21:37:02.795Z,79.22
2022-11-09T21:39:52.225Z,78.78
2022-11-09T21:42:43.894Z,78.89
2022-11-09T21:45:33.153Z,78.73
2022-11-09T21:48:23.049Z,78.86
2022-11-09T21:51:11.820Z,79.13
2022-11-09T21:54:01.596Z,79.64
2022-11-09T21:56:53.460Z,79.05
2022-11-09T21:59:45.511Z,79.95
2022-11-09T22:02:34.150Z,79.81
2022-11-09T22:05:23.380Z,79.61
2022-11-09T22:08:12.787Z,79.98
2022-11-09T22:11:12.657Z,80.08
2022-11-09T22:14:14.780Z,80.08
2022-11-09T22:17:08.905Z,79.67
2022-11-09T22:20:10.076Z,79.53
2022-11-09T22:22:58.832Z,79.40
2022-11-09T22:25:48.258Z,79.45
2022-11-09T22:28:36.741Z,78.74
2022-11-09T22:31:26.209Z,79.56
2022-11-09T22:34:18.458Z,79.64
2022-11-09T22:37:07.826Z,79.65
2022-11-09T22:39:57.263Z,79.80
2022-11-09T22:42:46.683Z,79.80
2022-11-09T22:45:36.916Z,79.96
2022-11-09T22:48:27.426Z,80.73
2022-11-09T22:51:21.020Z,81.35
2022-11-09T22:54:10.797Z,81.12
2022-11-09T22:56:59.235Z,81.61
2022-11-09T22:59:52.550Z,80.41
2022-11-09T23:02:41.159Z,81.17
2022-11-09T23:05:29.582Z,81.80
2022-11-09T23:08:21.383Z,81.20
2022-11-09T23:11:13.812Z,81.05
2022-11-09T23:14:03.458Z,81.27
2022-11-09T23:16:52.710Z,81.58
2022-11-09T23:19:39.372Z,81.39
2022-11-09T23:22:28.794Z,81.64
2022-11-09T23:25:33.259Z,81.71
2022-11-09T23:28:21.890Z,82.18
2022-11-09T23:31:12.373Z,82.31
2022-11-09T23:34:03.596Z,82.35
2022-11-09T23:36:54.234Z,82.70
2022-11-09T23:39:42.406Z,83.17
2022-11-09T23:42:33.365Z,82.52
2022-11-09T23:45:21.478Z,82.95
2022-11-09T23:48:15.233Z,82.67
2022-11-09T23:51:04.722Z,82.51
2022-11-09T23:53:53.081Z,82.56
2022-11-09T23:56:41.361Z,82.70
2022-11-09T23:59:32.371Z,83.21
